Time;durP1;ratioP1;P1;durP2;ratioP2;P2;SDS_P1;SDS_P2;PMS_P1;PMS_P2;Temp;Humidity;BMP_temperature;BMP_pressure;BME280_temperature;BME280_humidity;BME280_pressure;Samples;Min_cycle;Max_cycle;Signal;HPM_P1;HPM_P2
2023/07/29 00:05:47;;;;;;;4.50;2.85;;;;;;;16.64;74.53;99510.66;31085524;28;111358;-66
2023/07/29 00:20:47;;;;;;;3.50;2.50;;;;;;;16.70;74.50;99520.50;31083863;28;97370;-63
2023/07/29 00:35:48;;;;;;;4.28;3.05;;;;;;;16.60;75.04;99512.97;31083002;28;96690;-63
2023/07/29 00:50:49;;;;;;;4.65;2.97;;;;;;;16.56;75.16;99533.28;31103490;28;97421;-65
2023/07/29 01:06:01;;;;;;;6.07;2.70;;;;;;;16.64;75.48;99529.47;31103936;28;96654;-63
2023/07/29 01:21:07;;;;;;;3.27;2.63;;;;;;;16.65;75.61;99517.66;31101445;28;97126;-64
2023/07/29 01:36:15;;;;;;;4.33;2.77;;;;;;;16.65;75.85;99528.41;31099700;28;97158;-64
2023/07/29 01:51:15;;;;;;;6.70;3.23;;;;;;;16.57;75.77;99521.50;31097628;28;97398;-65
2023/07/29 02:06:15;;;;;;;2.97;2.60;;;;;;;16.46;75.97;99538.38;31097177;28;97339;-63
2023/07/29 02:21:16;;;;;;;4.60;3.22;;;;;;;16.32;75.67;99533.16;31094957;28;114967;-62
2023/07/29 02:36:17;;;;;;;4.50;3.47;;;;;;;16.20;76.06;99519.63;31095309;28;96717;-64
2023/07/29 02:51:18;;;;;;;4.90;3.37;;;;;;;16.04;76.23;99520.22;31093927;28;97663;-66
2023/07/29 03:06:18;;;;;;;7.00;5.00;;;;;;;15.80;76.49;99530.78;31090232;28;112730;-62
2023/07/29 03:21:19;;;;;;;6.75;4.30;;;;;;;15.56;76.95;99535.09;31089627;28;97282;-66
2023/07/29 03:36:21;;;;;;;6.35;4.03;;;;;;;15.64;77.48;99542.06;31086734;28;114468;-61
2023/07/29 03:51:22;;;;;;;7.00;4.40;;;;;;;15.83;77.61;99535.72;31086303;28;97044;-63
2023/07/29 04:06:22;;;;;;;6.87;4.17;;;;;;;15.94;77.31;99558.34;31085145;28;97130;-63
2023/07/29 04:21:23;;;;;;;6.25;3.97;;;;;;;16.14;77.85;99557.31;31099398;28;97104;-63
2023/07/29 04:36:23;;;;;;;5.72;4.10;;;;;;;16.37;77.30;99564.72;31105771;28;97124;-66
2023/07/29 04:51:23;;;;;;;5.43;3.38;;;;;;;16.63;76.82;99555.53;31102266;28;119213;-63
2023/07/29 05:06:24;;;;;;;7.55;3.40;;;;;;;17.08;76.88;99557.06;31100644;28;97111;-64
2023/07/29 05:21:24;;;;;;;10.32;2.70;;;;;;;17.73;76.50;99558.16;31100884;28;97610;-65
2023/07/29 05:36:24;;;;;;;7.57;4.28;;;;;;;18.88;75.85;99576.59;31099123;28;111872;-65
2023/07/29 05:51:25;;;;;;;2.83;1.88;;;;;;;19.91;74.43;99573.78;31097841;28;97067;-65
2023/07/29 06:06:25;;;;;;;3.57;1.77;;;;;;;20.98;72.35;99577.38;31095864;28;96860;-63
2023/07/29 06:21:25;;;;;;;3.90;1.77;;;;;;;22.05;70.42;99572.09;31092695;28;98482;-66
2023/07/29 06:36:26;;;;;;;1.55;1.10;;;;;;;23.20;66.81;99582.41;31090730;28;97250;-66
2023/07/29 06:51:26;;;;;;;2.90;1.50;;;;;;;24.16;64.48;99578.06;31088959;28;97140;-65
2023/07/29 07:06:27;;;;;;;2.75;1.50;;;;;;;25.46;60.50;99553.78;31085422;28;97483;-67
2023/07/29 07:21:27;;;;;;;1.65;1.10;;;;;;;26.70;56.70;99561.53;31081929;28;98292;-64
2023/07/29 07:36:27;;;;;;;4.40;1.52;;;;;;;27.16;53.38;99560.06;31078305;28;108481;-65
2023/07/29 07:51:27;;;;;;;1.85;1.20;;;;;;;27.75;49.76;99559.69;31074607;28;103319;-65
2023/07/29 08:06:28;;;;;;;2.65;1.38;;;;;;;28.52;48.66;99552.81;31077562;28;110852;-65
2023/07/29 08:21:28;;;;;;;1.88;1.10;;;;;;;28.24;45.88;99544.59;31074303;28;97179;-62
2023/07/29 08:36:29;;;;;;;1.20;0.98;;;;;;;28.34;45.97;99517.00;31069222;28;97459;-62
2023/07/29 08:51:31;;;;;;;2.13;0.90;;;;;;;29.05;44.56;99496.56;31071810;28;98183;-62
2023/07/29 09:06:32;;;;;;;2.80;1.00;;;;;;;28.59;42.69;99492.91;31085045;28;97281;-67
2023/07/29 09:21:32;;;;;;;2.65;0.82;;;;;;;27.90;43.62;99498.41;31092687;28;97159;-65
2023/07/29 09:36:34;;;;;;;1.83;0.88;;;;;;;28.45;44.04;99494.88;31090400;28;97301;-63
2023/07/29 09:51:39;;;;;;;5.77;1.33;;;;;;;29.11;42.34;99462.41;31090441;28;97093;-67
2023/07/29 10:06:41;;;;;;;1.50;1.13;;;;;;;29.80;40.18;99474.94;31088641;28;96887;-66
2023/07/29 10:21:44;;;;;;;2.57;1.40;;;;;;;30.35;38.98;99481.09;31086428;28;97528;-64
2023/07/29 10:36:46;;;;;;;2.53;1.73;;;;;;;29.62;40.12;99452.09;31086271;28;97532;-68
2023/07/29 10:51:47;;;;;;;2.37;2.00;;;;;;;30.02;39.74;99432.09;31083292;28;96881;-69
2023/07/29 11:07:11;;;;;;;3.80;1.75;;;;;;;30.20;38.78;99408.22;31081531;28;97670;-67
2023/07/29 11:22:12;;;;;;;2.80;2.00;;;;;;;30.35;37.94;99404.97;30976100;28;96974;-68
2023/07/29 11:37:12;;;;;;;2.03;1.70;;;;;;;29.40;38.55;99381.59;30961640;28;97445;-68
2023/07/29 11:52:12;;;;;;;1.95;1.23;;;;;;;30.34;37.42;99375.09;31014733;28;97135;-67
2023/07/29 12:07:14;;;;;;;1.83;1.20;;;;;;;29.87;37.30;99370.19;31083812;28;96993;-68
2023/07/29 12:22:19;;;;;;;1.70;0.80;;;;;;;29.91;35.77;99368.41;31081332;28;96966;-66
2023/07/29 12:37:19;;;;;;;1.90;0.90;;;;;;;29.84;36.30;99357.06;31089103;28;96664;-67
2023/07/29 12:52:20;;;;;;;0.93;0.60;;;;;;;29.84;36.01;99340.59;31102250;28;100770;-64
2023/07/29 13:07:20;;;;;;;1.05;0.82;;;;;;;29.26;36.87;99326.88;31100095;28;97179;-62
2023/07/29 13:22:21;;;;;;;1.38;0.70;;;;;;;29.35;37.57;99319.47;31096601;28;97563;-66
2023/07/29 13:37:21;;;;;;;1.50;1.13;;;;;;;29.35;36.76;99313.19;31094876;28;97982;-68
2023/07/29 13:52:21;;;;;;;0.90;0.70;;;;;;;29.19;37.38;99299.06;31154749;28;96784;-63
2023/07/29 14:07:22;;;;;;;2.88;0.80;;;;;;;29.14;37.82;99280.00;31139171;27;96748;-63
2023/07/29 14:22:22;;;;;;;3.33;0.90;;;;;;;27.92;39.28;99275.31;31093523;28;97274;-63
2023/07/29 14:37:23;;;;;;;2.55;1.17;;;;;;;27.25;41.43;99237.63;31089799;28;97082;-62
2023/07/29 14:52:23;;;;;;;1.65;0.73;;;;;;;26.77;42.93;99225.94;31107084;28;96686;-62
2023/07/29 15:07:23;;;;;;;1.38;0.80;;;;;;;26.30;43.74;99234.13;31089279;28;97871;-63
2023/07/29 15:22:24;;;;;;;1.30;0.90;;;;;;;26.35;44.12;99234.03;31087042;28;96998;-64
2023/07/29 15:37:27;;;;;;;0.90;0.50;;;;;;;26.34;44.40;99243.34;31083793;28;112552;-66
2023/07/29 15:52:29;;;;;;;1.20;0.70;;;;;;;25.76;45.75;99246.38;31085370;28;97554;-63
2023/07/29 16:07:29;;;;;;;6.23;1.37;;;;;;;25.42;46.69;99250.91;31079065;28;97384;-63
2023/07/29 16:22:30;;;;;;;1.17;0.60;;;;;;;25.50;46.52;99263.88;31075542;28;99905;-65
2023/07/29 16:37:30;;;;;;;1.42;0.80;;;;;;;25.07;47.63;99265.72;31073787;28;97167;-64
2023/07/29 16:52:30;;;;;;;1.15;0.88;;;;;;;24.51;48.01;99254.28;31109076;28;97243;-62
2023/07/29 17:07:31;;;;;;;3.70;0.60;;;;;;;24.25;48.09;99262.66;31071992;28;116965;-66
2023/07/29 17:22:33;;;;;;;2.13;0.77;;;;;;;23.71;49.06;99239.84;31072833;28;107446;-63
2023/07/29 17:37:34;;;;;;;1.60;0.80;;;;;;;23.76;50.16;99258.06;31090518;28;97105;-62
2023/07/29 17:52:35;;;;;;;2.20;0.70;;;;;;;23.70;49.94;99270.84;31087787;28;97578;-65
2023/07/29 18:07:35;;;;;;;1.23;0.75;;;;;;;23.18;51.20;99291.97;31085619;28;96755;-62
2023/07/29 18:22:36;;;;;;;1.75;1.00;;;;;;;22.80;52.30;99326.78;31081791;28;110977;-65
2023/07/29 18:37:36;;;;;;;3.00;0.80;;;;;;;22.42;53.29;99327.03;31081072;28;97680;-67
2023/07/29 18:52:36;;;;;;;2.22;1.20;;;;;;;22.03;53.72;99323.94;31079423;28;114087;-66
2023/07/29 19:07:37;;;;;;;2.15;1.00;;;;;;;21.63;54.56;99337.09;31075361;28;111866;-63
2023/07/29 19:22:38;;;;;;;2.08;0.90;;;;;;;21.38;56.23;99354.00;30981904;28;97501;-65
2023/07/29 19:37:38;;;;;;;5.03;1.20;;;;;;;21.40;57.14;99385.16;31006766;28;97445;-64
2023/07/29 19:52:38;;;;;;;3.13;1.20;;;;;;;21.59;58.22;99415.38;31079024;28;97364;-67
2023/07/29 20:07:39;;;;;;;6.10;1.20;;;;;;;21.65;58.28;99394.53;31076242;28;96805;-64
2023/07/29 20:22:39;;;;;;;3.40;1.13;;;;;;;21.61;58.70;99407.00;31073956;28;97686;-63
2023/07/29 20:37:39;;;;;;;2.30;0.83;;;;;;;21.50;59.01;99446.75;31074147;28;96746;-65
2023/07/29 20:52:40;;;;;;;3.10;1.20;;;;;;;20.81;61.23;99445.66;31072539;28;97159;-65
2023/07/29 21:07:40;;;;;;;3.43;1.27;;;;;;;20.06;62.74;99443.44;31093333;28;103714;-65
2023/07/29 21:22:40;;;;;;;5.13;1.50;;;;;;;19.16;65.77;99466.97;31092563;28;114019;-63
2023/07/29 21:37:41;;;;;;;1.98;1.15;;;;;;;18.44;68.23;99469.16;31091285;28;106854;-65
2023/07/29 21:52:41;;;;;;;3.03;1.30;;;;;;;18.02;70.17;99472.06;31090337;28;98212;-65
2023/07/29 22:07:41;;;;;;;5.57;1.75;;;;;;;17.85;71.09;99478.16;31088160;28;97178;-65
2023/07/29 22:22:42;;;;;;;2.15;1.30;;;;;;;17.58;72.01;99475.94;31087549;28;103666;-62
2023/07/29 22:37:42;;;;;;;2.95;1.55;;;;;;;17.28;72.34;99480.56;31087084;28;101768;-63
2023/07/29 22:52:42;;;;;;;5.22;1.52;;;;;;;16.91;73.33;99486.94;31084003;28;108307;-64
2023/07/29 23:07:43;;;;;;;3.22;1.60;;;;;;;16.66;73.78;99484.34;31083489;28;96829;-63
2023/07/29 23:22:45;;;;;;;3.60;1.63;;;;;;;16.62;74.68;99489.38;31082889;28;97186;-63
2023/07/29 23:37:45;;;;;;;4.00;1.80;;;;;;;16.59;74.99;99484.44;31080974;28;97267;-63
2023/07/29 23:52:46;;;;;;;3.72;1.70;;;;;;;16.40;75.17;99491.69;31078825;28;97337;-62
